sensor_id;sensor_type;location;lat;lon;timestamp;P1;durP1;ratioP1;P2;durP2;ratioP2
75984;SDS011;65033;44.660;37.758;2022-11-20T00:01:10;7.95;;;3.55;;
75984;SDS011;65033;44.660;37.758;2022-11-20T00:02:18;6.78;;;3.50;;
75984;SDS011;65033;44.660;37.758;2022-11-20T00:03:21;9.25;;;3.55;;
75984;SDS011;65033;44.660;37.758;2022-11-20T00:04:25;7.93;;;3.35;;
75984;SDS011;65033;44.660;37.758;2022-11-20T00:05:29;9.38;;;3.85;;
75984;SDS011;65033;44.660;37.758;2022-11-20T00:06:35;7.32;;;3.30;;
75984;SDS011;65033;44.660;37.758;2022-11-20T00:07:38;9.23;;;4.00;;
75984;SDS011;65033;44.660;37.758;2022-11-20T00:08:42;9.55;;;3.85;;
75984;SDS011;65033;44.660;37.758;2022-11-20T00:09:45;7.30;;;3.30;;
75984;SDS011;65033;44.660;37.758;2022-11-20T00:10:49;9.32;;;4.03;;
75984;SDS011;65033;44.660;37.758;2022-11-20T00:11:52;8.55;;;3.58;;
75984;SDS011;65033;44.660;37.758;2022-11-20T00:12:57;8.52;;;3.80;;
75984;SDS011;65033;44.660;37.758;2022-11-20T00:14:00;6.90;;;3.03;;
75984;SDS011;65033;44.660;37.758;2022-11-20T00:15:04;10.07;;;4.03;;
75984;SDS011;65033;44.660;37.758;2022-11-20T00:16:10;7.13;;;3.72;;
75984;SDS011;65033;44.660;37.758;2022-11-20T00:17:15;7.32;;;3.80;;
75984;SDS011;65033;44.660;37.758;2022-11-20T00:18:18;8.13;;;3.88;;
75984;SDS011;65033;44.660;37.758;2022-11-20T00:19:22;7.65;;;3.42;;
75984;SDS011;65033;44.660;37.758;2022-11-20T00:20:25;8.52;;;3.40;;
75984;SDS011;65033;44.660;37.758;2022-11-20T00:21:29;7.85;;;4.35;;
75984;SDS011;65033;44.660;37.758;2022-11-20T00:22:32;8.25;;;3.55;;
75984;SDS011;65033;44.660;37.758;2022-11-20T00:23:36;11.38;;;3.83;;
75984;SDS011;65033;44.660;37.758;2022-11-20T00:24:39;8.30;;;3.88;;
75984;SDS011;65033;44.660;37.758;2022-11-20T00:25:44;6.63;;;3.55;;
75984;SDS011;65033;44.660;37.758;2022-11-20T00:26:47;10.50;;;4.00;;
75984;SDS011;65033;44.660;37.758;2022-11-20T00:27:50;9.35;;;3.55;;
75984;SDS011;65033;44.660;37.758;2022-11-20T00:28:54;8.45;;;3.63;;
75984;SDS011;65033;44.660;37.758;2022-11-20T00:29:59;8.70;;;4.25;;
75984;SDS011;65033;44.660;37.758;2022-11-20T00:31:03;7.28;;;3.50;;
75984;SDS011;65033;44.660;37.758;2022-11-20T00:32:08;7.72;;;3.85;;
75984;SDS011;65033;44.660;37.758;2022-11-20T00:33:11;8.10;;;3.85;;
75984;SDS011;65033;44.660;37.758;2022-11-20T00:34:15;6.70;;;3.40;;
75984;SDS011;65033;44.660;37.758;2022-11-20T00:35:18;9.20;;;3.80;;
75984;SDS011;65033;44.660;37.758;2022-11-20T00:36:22;9.00;;;4.00;;
75984;SDS011;65033;44.660;37.758;2022-11-20T00:37:26;7.82;;;3.65;;
75984;SDS011;65033;44.660;37.758;2022-11-20T00:38:29;8.02;;;3.25;;
75984;SDS011;65033;44.660;37.758;2022-11-20T00:39:33;11.43;;;4.03;;
75984;SDS011;65033;44.660;37.758;2022-11-20T00:40:36;7.82;;;3.47;;
75984;SDS011;65033;44.660;37.758;2022-11-20T00:41:39;7.38;;;3.35;;
75984;SDS011;65033;44.660;37.758;2022-11-20T00:42:43;8.70;;;3.63;;
75984;SDS011;65033;44.660;37.758;2022-11-20T00:43:47;7.55;;;3.88;;
75984;SDS011;65033;44.660;37.758;2022-11-20T00:44:50;8.25;;;3.45;;
75984;SDS011;65033;44.660;37.758;2022-11-20T00:45:57;6.85;;;3.47;;
75984;SDS011;65033;44.660;37.758;2022-11-20T00:47:00;7.22;;;3.10;;
75984;SDS011;65033;44.660;37.758;2022-11-20T00:48:05;10.65;;;3.90;;
75984;SDS011;65033;44.660;37.758;2022-11-20T00:49:08;9.60;;;3.60;;
75984;SDS011;65033;44.660;37.758;2022-11-20T00:50:12;9.43;;;3.60;;
75984;SDS011;65033;44.660;37.758;2022-11-20T00:51:16;8.18;;;3.75;;
75984;SDS011;65033;44.660;37.758;2022-11-20T00:52:21;7.45;;;3.85;;
75984;SDS011;65033;44.660;37.758;2022-11-20T00:53:24;8.10;;;4.45;;
75984;SDS011;65033;44.660;37.758;2022-11-20T00:54:28;6.10;;;3.45;;
75984;SDS011;65033;44.660;37.758;2022-11-20T00:55:32;10.48;;;3.90;;
75984;SDS011;65033;44.660;37.758;2022-11-20T00:56:35;8.63;;;3.45;;
75984;SDS011;65033;44.660;37.758;2022-11-20T00:57:38;7.05;;;4.32;;
75984;SDS011;65033;44.660;37.758;2022-11-20T00:58:42;6.35;;;4.13;;
75984;SDS011;65033;44.660;37.758;2022-11-20T00:59:47;6.93;;;3.50;;
75984;SDS011;65033;44.660;37.758;2022-11-20T01:00:51;6.43;;;3.45;;
75984;SDS011;65033;44.660;37.758;2022-11-20T01:01:55;6.70;;;3.65;;
75984;SDS011;65033;44.660;37.758;2022-11-20T01:02:59;6.90;;;3.25;;
75984;SDS011;65033;44.660;37.758;2022-11-20T01:04:03;7.18;;;3.45;;
75984;SDS011;65033;44.660;37.758;2022-11-20T01:05:07;6.50;;;3.67;;
75984;SDS011;65033;44.660;37.758;2022-11-20T01:06:11;8.45;;;3.67;;
75984;SDS011;65033;44.660;37.758;2022-11-20T01:07:16;7.43;;;3.17;;
75984;SDS011;65033;44.660;37.758;2022-11-20T01:08:20;7.47;;;3.72;;
75984;SDS011;65033;44.660;37.758;2022-11-20T01:09:23;6.88;;;3.65;;
75984;SDS011;65033;44.660;37.758;2022-11-20T01:10:26;10.05;;;3.78;;
75984;SDS011;65033;44.660;37.758;2022-11-20T01:11:30;8.15;;;3.55;;
75984;SDS011;65033;44.660;37.758;2022-11-20T01:12:35;7.68;;;3.20;;
75984;SDS011;65033;44.660;37.758;2022-11-20T01:13:39;6.72;;;3.15;;
75984;SDS011;65033;44.660;37.758;2022-11-20T01:14:43;9.52;;;3.80;;
75984;SDS011;65033;44.660;37.758;2022-11-20T01:15:46;7.97;;;3.08;;
75984;SDS011;65033;44.660;37.758;2022-11-20T01:16:50;7.22;;;3.55;;
75984;SDS011;65033;44.660;37.758;2022-11-20T01:17:54;6.30;;;3.22;;
75984;SDS011;65033;44.660;37.758;2022-11-20T01:18:58;6.05;;;3.63;;
75984;SDS011;65033;44.660;37.758;2022-11-20T01:20:05;6.38;;;3.13;;
75984;SDS011;65033;44.660;37.758;2022-11-20T01:21:10;11.50;;;3.63;;
75984;SDS011;65033;44.660;37.758;2022-11-20T01:22:14;8.63;;;3.30;;
75984;SDS011;65033;44.660;37.758;2022-11-20T01:23:17;7.70;;;3.67;;
75984;SDS011;65033;44.660;37.758;2022-11-20T01:24:21;7.95;;;3.72;;
75984;SDS011;65033;44.660;37.758;2022-11-20T01:25:25;7.00;;;3.38;;
75984;SDS011;65033;44.660;37.758;2022-11-20T01:26:29;8.25;;;3.67;;
75984;SDS011;65033;44.660;37.758;2022-11-20T01:27:33;8.15;;;3.53;;
75984;SDS011;65033;44.660;37.758;2022-11-20T01:28:37;8.88;;;3.92;;
75984;SDS011;65033;44.660;37.758;2022-11-20T01:29:40;8.32;;;3.97;;
75984;SDS011;65033;44.660;37.758;2022-11-20T01:30:44;7.30;;;3.70;;
75984;SDS011;65033;44.660;37.758;2022-11-20T01:31:47;8.48;;;4.07;;
75984;SDS011;65033;44.660;37.758;2022-11-20T01:32:50;8.30;;;3.65;;
75984;SDS011;65033;44.660;37.758;2022-11-20T01:33:55;7.95;;;3.38;;
75984;SDS011;65033;44.660;37.758;2022-11-20T01:34:59;8.50;;;3.20;;
75984;SDS011;65033;44.660;37.758;2022-11-20T01:36:05;8.15;;;3.78;;
75984;SDS011;65033;44.660;37.758;2022-11-20T01:37:08;7.05;;;3.25;;
75984;SDS011;65033;44.660;37.758;2022-11-20T01:38:12;7.78;;;3.65;;
75984;SDS011;65033;44.660;37.758;2022-11-20T01:39:16;8.10;;;3.60;;
75984;SDS011;65033;44.660;37.758;2022-11-20T01:40:21;6.97;;;3.00;;
75984;SDS011;65033;44.660;37.758;2022-11-20T01:41:24;8.40;;;3.40;;
75984;SDS011;65033;44.660;37.758;2022-11-20T01:42:47;7.47;;;3.50;;
75984;SDS011;65033;44.660;37.758;2022-11-20T01:46:00;7.45;;;3.78;;
75984;SDS011;65033;44.660;37.758;2022-11-20T01:47:11;7.38;;;3.30;;
75984;SDS011;65033;44.660;37.758;2022-11-20T01:48:18;5.93;;;3.55;;
75984;SDS011;65033;44.660;37.758;2022-11-20T01:49:26;6.07;;;3.42;;
75984;SDS011;65033;44.660;37.758;2022-11-20T01:50:37;8.23;;;3.72;;
75984;SDS011;65033;44.660;37.758;2022-11-20T01:51:42;8.38;;;3.45;;
75984;SDS011;65033;44.660;37.758;2022-11-20T01:52:50;6.57;;;3.33;;
75984;SDS011;65033;44.660;37.758;2022-11-20T01:53:58;7.85;;;3.80;;
75984;SDS011;65033;44.660;37.758;2022-11-20T01:55:05;7.82;;;3.50;;
75984;SDS011;65033;44.660;37.758;2022-11-20T01:56:11;6.97;;;3.60;;
75984;SDS011;65033;44.660;37.758;2022-11-20T01:57:17;6.13;;;3.03;;
75984;SDS011;65033;44.660;37.758;2022-11-20T01:58:22;6.80;;;3.55;;
75984;SDS011;65033;44.660;37.758;2022-11-20T01:59:29;9.48;;;3.40;;
75984;SDS011;65033;44.660;37.758;2022-11-20T02:00:33;7.32;;;2.97;;
75984;SDS011;65033;44.660;37.758;2022-11-20T02:01:37;6.72;;;3.17;;
75984;SDS011;65033;44.660;37.758;2022-11-20T02:02:42;6.05;;;3.05;;
75984;SDS011;65033;44.660;37.758;2022-11-20T02:03:49;7.43;;;3.53;;
75984;SDS011;65033;44.660;37.758;2022-11-20T02:04:53;6.10;;;3.13;;
75984;SDS011;65033;44.660;37.758;2022-11-20T02:06:01;6.78;;;3.20;;
75984;SDS011;65033;44.660;37.758;2022-11-20T02:07:09;6.20;;;3.15;;
75984;SDS011;65033;44.660;37.758;2022-11-20T02:08:13;7.00;;;3.30;;
75984;SDS011;65033;44.660;37.758;2022-11-20T02:09:18;7.30;;;3.25;;
75984;SDS011;65033;44.660;37.758;2022-11-20T02:10:21;7.65;;;3.75;;
75984;SDS011;65033;44.660;37.758;2022-11-20T02:11:24;7.00;;;3.30;;
75984;SDS011;65033;44.660;37.758;2022-11-20T02:12:28;10.45;;;3.75;;
75984;SDS011;65033;44.660;37.758;2022-11-20T02:13:49;8.23;;;3.33;;
75984;SDS011;65033;44.660;37.758;2022-11-20T02:14:53;6.82;;;3.55;;
75984;SDS011;65033;44.660;37.758;2022-11-20T02:15:57;9.25;;;3.67;;
75984;SDS011;65033;44.660;37.758;2022-11-20T02:17:00;7.50;;;3.42;;
75984;SDS011;65033;44.660;37.758;2022-11-20T02:18:04;5.35;;;3.15;;
75984;SDS011;65033;44.660;37.758;2022-11-20T02:19:10;8.05;;;4.00;;
75984;SDS011;65033;44.660;37.758;2022-11-20T02:20:19;6.15;;;3.03;;
75984;SDS011;65033;44.660;37.758;2022-11-20T02:21:28;6.72;;;3.58;;
75984;SDS011;65033;44.660;37.758;2022-11-20T02:22:39;9.30;;;3.63;;
75984;SDS011;65033;44.660;37.758;2022-11-20T02:25:16;5.97;;;3.50;;
75984;SDS011;65033;44.660;37.758;2022-11-20T02:26:21;6.43;;;3.00;;
75984;SDS011;65033;44.660;37.758;2022-11-20T02:27:25;6.13;;;2.97;;
75984;SDS011;65033;44.660;37.758;2022-11-20T02:28:29;5.45;;;3.05;;
75984;SDS011;65033;44.660;37.758;2022-11-20T02:29:33;6.63;;;3.55;;
75984;SDS011;65033;44.660;37.758;2022-11-20T02:30:39;5.95;;;3.05;;
75984;SDS011;65033;44.660;37.758;2022-11-20T02:31:42;6.78;;;3.60;;
75984;SDS011;65033;44.660;37.758;2022-11-20T02:32:47;9.07;;;3.50;;
75984;SDS011;65033;44.660;37.758;2022-11-20T02:33:54;8.88;;;3.60;;
75984;SDS011;65033;44.660;37.758;2022-11-20T02:34:58;7.82;;;3.03;;
75984;SDS011;65033;44.660;37.758;2022-11-20T02:36:08;5.72;;;3.55;;
75984;SDS011;65033;44.660;37.758;2022-11-20T02:37:16;6.72;;;3.55;;
75984;SDS011;65033;44.660;37.758;2022-11-20T02:38:21;7.05;;;3.55;;
75984;SDS011;65033;44.660;37.758;2022-11-20T02:39:27;7.00;;;3.33;;
75984;SDS011;65033;44.660;37.758;2022-11-20T02:40:31;6.05;;;3.10;;
75984;SDS011;65033;44.660;37.758;2022-11-20T02:41:35;7.10;;;3.65;;
75984;SDS011;65033;44.660;37.758;2022-11-20T02:42:39;7.50;;;3.50;;
75984;SDS011;65033;44.660;37.758;2022-11-20T02:43:43;6.93;;;4.07;;
75984;SDS011;65033;44.660;37.758;2022-11-20T02:44:46;7.20;;;3.10;;
75984;SDS011;65033;44.660;37.758;2022-11-20T02:45:50;8.50;;;3.85;;
75984;SDS011;65033;44.660;37.758;2022-11-20T02:46:53;7.35;;;3.67;;
75984;SDS011;65033;44.660;37.758;2022-11-20T02:47:59;13.00;;;3.95;;
75984;SDS011;65033;44.660;37.758;2022-11-20T02:49:02;6.28;;;3.50;;
75984;SDS011;65033;44.660;37.758;2022-11-20T02:50:06;5.90;;;3.58;;
75984;SDS011;65033;44.660;37.758;2022-11-20T02:51:10;9.70;;;3.47;;
75984;SDS011;65033;44.660;37.758;2022-11-20T02:52:13;6.47;;;3.65;;
75984;SDS011;65033;44.660;37.758;2022-11-20T02:53:17;7.88;;;3.67;;
75984;SDS011;65033;44.660;37.758;2022-11-20T02:54:20;7.35;;;3.75;;
75984;SDS011;65033;44.660;37.758;2022-11-20T02:55:25;7.82;;;3.58;;
75984;SDS011;65033;44.660;37.758;2022-11-20T02:56:28;9.60;;;3.88;;
75984;SDS011;65033;44.660;37.758;2022-11-20T02:57:33;10.05;;;3.92;;
75984;SDS011;65033;44.660;37.758;2022-11-20T02:58:36;7.55;;;4.03;;
75984;SDS011;65033;44.660;37.758;2022-11-20T02:59:39;8.02;;;3.60;;
75984;SDS011;65033;44.660;37.758;2022-11-20T03:00:43;6.50;;;3.92;;
75984;SDS011;65033;44.660;37.758;2022-11-20T03:01:47;7.20;;;4.15;;
75984;SDS011;65033;44.660;37.758;2022-11-20T03:02:51;5.93;;;2.90;;
75984;SDS011;65033;44.660;37.758;2022-11-20T03:03:54;6.90;;;3.38;;
75984;SDS011;65033;44.660;37.758;2022-11-20T03:04:58;8.90;;;3.70;;
75984;SDS011;65033;44.660;37.758;2022-11-20T03:06:02;7.57;;;3.83;;
75984;SDS011;65033;44.660;37.758;2022-11-20T03:07:05;7.50;;;4.18;;
75984;SDS011;65033;44.660;37.758;2022-11-20T03:08:10;6.70;;;3.63;;
75984;SDS011;65033;44.660;37.758;2022-11-20T03:09:13;5.68;;;3.42;;
75984;SDS011;65033;44.660;37.758;2022-11-20T03:10:16;8.48;;;4.03;;
75984;SDS011;65033;44.660;37.758;2022-11-20T03:11:21;6.65;;;3.47;;
75984;SDS011;65033;44.660;37.758;2022-11-20T03:12:24;5.88;;;3.83;;
75984;SDS011;65033;44.660;37.758;2022-11-20T03:13:28;8.40;;;4.00;;
75984;SDS011;65033;44.660;37.758;2022-11-20T03:14:31;6.75;;;3.78;;
75984;SDS011;65033;44.660;37.758;2022-11-20T03:15:35;9.23;;;3.95;;
75984;SDS011;65033;44.660;37.758;2022-11-20T03:16:39;7.75;;;3.88;;
75984;SDS011;65033;44.660;37.758;2022-11-20T03:17:42;6.68;;;3.75;;
75984;SDS011;65033;44.660;37.758;2022-11-20T03:18:46;8.93;;;3.83;;
75984;SDS011;65033;44.660;37.758;2022-11-20T03:19:49;8.98;;;3.85;;
75984;SDS011;65033;44.660;37.758;2022-11-20T03:20:56;7.47;;;4.05;;
75984;SDS011;65033;44.660;37.758;2022-11-20T03:22:01;5.00;;;3.47;;
75984;SDS011;65033;44.660;37.758;2022-11-20T03:23:04;7.53;;;3.88;;
75984;SDS011;65033;44.660;37.758;2022-11-20T03:24:08;8.57;;;3.92;;
75984;SDS011;65033;44.660;37.758;2022-11-20T03:25:11;5.55;;;3.53;;
75984;SDS011;65033;44.660;37.758;2022-11-20T03:26:16;6.80;;;4.30;;
75984;SDS011;65033;44.660;37.758;2022-11-20T03:27:22;11.18;;;3.88;;
75984;SDS011;65033;44.660;37.758;2022-11-20T03:28:26;6.47;;;4.00;;
75984;SDS011;65033;44.660;37.758;2022-11-20T03:29:29;7.72;;;4.18;;
75984;SDS011;65033;44.660;37.758;2022-11-20T03:30:32;8.18;;;3.60;;
75984;SDS011;65033;44.660;37.758;2022-11-20T03:31:36;7.63;;;4.20;;
75984;SDS011;65033;44.660;37.758;2022-11-20T03:32:44;6.38;;;4.03;;
75984;SDS011;65033;44.660;37.758;2022-11-20T03:33:47;6.78;;;3.47;;
75984;SDS011;65033;44.660;37.758;2022-11-20T03:34:51;8.38;;;3.42;;
75984;SDS011;65033;44.660;37.758;2022-11-20T03:35:54;7.75;;;3.90;;
75984;SDS011;65033;44.660;37.758;2022-11-20T03:37:03;7.22;;;4.13;;
75984;SDS011;65033;44.660;37.758;2022-11-20T03:38:06;6.15;;;4.28;;
75984;SDS011;65033;44.660;37.758;2022-11-20T03:39:09;6.88;;;3.72;;
75984;SDS011;65033;44.660;37.758;2022-11-20T03:40:13;6.10;;;3.78;;
75984;SDS011;65033;44.660;37.758;2022-11-20T03:41:17;7.18;;;4.28;;
75984;SDS011;65033;44.660;37.758;2022-11-20T03:42:26;6.28;;;4.07;;
75984;SDS011;65033;44.660;37.758;2022-11-20T03:43:51;7.38;;;4.20;;
75984;SDS011;65033;44.660;37.758;2022-11-20T03:45:03;6.47;;;3.72;;
75984;SDS011;65033;44.660;37.758;2022-11-20T03:46:17;6.80;;;4.07;;
75984;SDS011;65033;44.660;37.758;2022-11-20T03:47:21;5.22;;;3.45;;
75984;SDS011;65033;44.660;37.758;2022-11-20T03:48:39;5.05;;;3.38;;
75984;SDS011;65033;44.660;37.758;2022-11-20T03:49:48;8.52;;;4.57;;
75984;SDS011;65033;44.660;37.758;2022-11-20T03:51:06;7.03;;;4.45;;
75984;SDS011;65033;44.660;37.758;2022-11-20T03:52:13;5.05;;;4.13;;
75984;SDS011;65033;44.660;37.758;2022-11-20T03:53:21;6.82;;;4.22;;
75984;SDS011;65033;44.660;37.758;2022-11-20T03:54:30;7.65;;;4.15;;
75984;SDS011;65033;44.660;37.758;2022-11-20T03:55:33;7.40;;;4.15;;
75984;SDS011;65033;44.660;37.758;2022-11-20T03:56:37;5.15;;;3.80;;
75984;SDS011;65033;44.660;37.758;2022-11-20T03:57:43;7.32;;;4.35;;
75984;SDS011;65033;44.660;37.758;2022-11-20T03:58:46;6.72;;;4.15;;
75984;SDS011;65033;44.660;37.758;2022-11-20T03:59:50;5.85;;;4.38;;
75984;SDS011;65033;44.660;37.758;2022-11-20T04:00:53;4.57;;;3.80;;
75984;SDS011;65033;44.660;37.758;2022-11-20T04:01:57;7.78;;;3.95;;
75984;SDS011;65033;44.660;37.758;2022-11-20T04:03:01;7.18;;;4.18;;
75984;SDS011;65033;44.660;37.758;2022-11-20T04:04:06;6.15;;;4.03;;
75984;SDS011;65033;44.660;37.758;2022-11-20T04:05:09;8.75;;;5.05;;
75984;SDS011;65033;44.660;37.758;2022-11-20T04:06:13;6.97;;;3.75;;
75984;SDS011;65033;44.660;37.758;2022-11-20T04:07:19;5.68;;;3.58;;
75984;SDS011;65033;44.660;37.758;2022-11-20T04:08:22;7.00;;;4.50;;
75984;SDS011;65033;44.660;37.758;2022-11-20T04:09:25;6.22;;;4.28;;
75984;SDS011;65033;44.660;37.758;2022-11-20T04:10:29;5.43;;;4.32;;
75984;SDS011;65033;44.660;37.758;2022-11-20T04:11:33;8.48;;;4.97;;
75984;SDS011;65033;44.660;37.758;2022-11-20T04:12:37;10.43;;;4.47;;
75984;SDS011;65033;44.660;37.758;2022-11-20T04:13:47;9.95;;;4.55;;
75984;SDS011;65033;44.660;37.758;2022-11-20T04:14:52;6.00;;;3.80;;
75984;SDS011;65033;44.660;37.758;2022-11-20T04:15:56;6.00;;;4.57;;
75984;SDS011;65033;44.660;37.758;2022-11-20T04:17:01;6.57;;;4.68;;
75984;SDS011;65033;44.660;37.758;2022-11-20T04:18:08;5.57;;;4.40;;
75984;SDS011;65033;44.660;37.758;2022-11-20T04:19:12;7.47;;;4.72;;
75984;SDS011;65033;44.660;37.758;2022-11-20T04:20:27;7.78;;;4.43;;
75984;SDS011;65033;44.660;37.758;2022-11-20T04:21:31;5.47;;;4.30;;
75984;SDS011;65033;44.660;37.758;2022-11-20T04:22:35;7.03;;;4.70;;
75984;SDS011;65033;44.660;37.758;2022-11-20T04:23:38;8.82;;;5.43;;
75984;SDS011;65033;44.660;37.758;2022-11-20T04:24:41;7.22;;;5.82;;
75984;SDS011;65033;44.660;37.758;2022-11-20T04:25:45;8.75;;;4.97;;
75984;SDS011;65033;44.660;37.758;2022-11-20T04:26:48;5.90;;;4.53;;
75984;SDS011;65033;44.660;37.758;2022-11-20T04:27:51;9.02;;;5.30;;
75984;SDS011;65033;44.660;37.758;2022-11-20T04:28:57;6.38;;;5.53;;
75984;SDS011;65033;44.660;37.758;2022-11-20T04:30:00;6.82;;;5.22;;
75984;SDS011;65033;44.660;37.758;2022-11-20T04:31:04;7.85;;;5.65;;
75984;SDS011;65033;44.660;37.758;2022-11-20T04:32:09;5.72;;;4.68;;
75984;SDS011;65033;44.660;37.758;2022-11-20T04:33:12;6.57;;;4.78;;
75984;SDS011;65033;44.660;37.758;2022-11-20T04:34:15;8.40;;;4.78;;
75984;SDS011;65033;44.660;37.758;2022-11-20T04:35:19;6.70;;;4.85;;
75984;SDS011;65033;44.660;37.758;2022-11-20T04:36:23;6.07;;;4.70;;
75984;SDS011;65033;44.660;37.758;2022-11-20T04:37:27;9.77;;;4.88;;
75984;SDS011;65033;44.660;37.758;2022-11-20T04:38:31;8.63;;;5.15;;
75984;SDS011;65033;44.660;37.758;2022-11-20T04:39:35;6.32;;;4.80;;
75984;SDS011;65033;44.660;37.758;2022-11-20T04:40:38;7.75;;;5.20;;
75984;SDS011;65033;44.660;37.758;2022-11-20T04:41:41;7.45;;;4.85;;
75984;SDS011;65033;44.660;37.758;2022-11-20T04:42:45;7.45;;;5.32;;
75984;SDS011;65033;44.660;37.758;2022-11-20T04:43:49;5.72;;;4.55;;
75984;SDS011;65033;44.660;37.758;2022-11-20T04:44:55;7.00;;;4.93;;
75984;SDS011;65033;44.660;37.758;2022-11-20T04:45:59;7.45;;;5.15;;
75984;SDS011;65033;44.660;37.758;2022-11-20T04:47:03;8.18;;;5.85;;
75984;SDS011;65033;44.660;37.758;2022-11-20T04:48:07;6.95;;;4.50;;
75984;SDS011;65033;44.660;37.758;2022-11-20T04:49:13;7.32;;;4.22;;
75984;SDS011;65033;44.660;37.758;2022-11-20T04:50:17;6.70;;;4.93;;
75984;SDS011;65033;44.660;37.758;2022-11-20T04:51:20;7.72;;;4.00;;
75984;SDS011;65033;44.660;37.758;2022-11-20T04:52:23;6.90;;;4.80;;
75984;SDS011;65033;44.660;37.758;2022-11-20T04:53:27;7.38;;;5.00;;
75984;SDS011;65033;44.660;37.758;2022-11-20T04:54:43;6.30;;;4.38;;
75984;SDS011;65033;44.660;37.758;2022-11-20T04:55:47;6.65;;;5.00;;
75984;SDS011;65033;44.660;37.758;2022-11-20T04:56:50;6.93;;;4.95;;
75984;SDS011;65033;44.660;37.758;2022-11-20T04:57:53;7.15;;;4.15;;
75984;SDS011;65033;44.660;37.758;2022-11-20T04:58:59;6.43;;;4.78;;
75984;SDS011;65033;44.660;37.758;2022-11-20T05:00:06;8.80;;;5.53;;
75984;SDS011;65033;44.660;37.758;2022-11-20T05:01:12;7.82;;;5.53;;
75984;SDS011;65033;44.660;37.758;2022-11-20T05:02:16;8.68;;;6.75;;
75984;SDS011;65033;44.660;37.758;2022-11-20T05:03:19;8.13;;;7.18;;
75984;SDS011;65033;44.660;37.758;2022-11-20T05:04:23;9.52;;;8.52;;
75984;SDS011;65033;44.660;37.758;2022-11-20T05:05:26;10.43;;;8.15;;
75984;SDS011;65033;44.660;37.758;2022-11-20T05:06:30;10.52;;;9.50;;
75984;SDS011;65033;44.660;37.758;2022-11-20T05:07:33;13.13;;;9.68;;
75984;SDS011;65033;44.660;37.758;2022-11-20T05:08:37;10.38;;;9.18;;
75984;SDS011;65033;44.660;37.758;2022-11-20T05:09:40;10.80;;;9.48;;
75984;SDS011;65033;44.660;37.758;2022-11-20T05:10:43;10.80;;;9.68;;
75984;SDS011;65033;44.660;37.758;2022-11-20T05:11:47;12.32;;;11.13;;
75984;SDS011;65033;44.660;37.758;2022-11-20T05:12:52;11.50;;;10.18;;
75984;SDS011;65033;44.660;37.758;2022-11-20T05:13:57;12.73;;;11.43;;
75984;SDS011;65033;44.660;37.758;2022-11-20T05:15:02;12.25;;;11.05;;
75984;SDS011;65033;44.660;37.758;2022-11-20T05:16:07;13.40;;;12.10;;
75984;SDS011;65033;44.660;37.758;2022-11-20T05:17:12;13.95;;;12.55;;
75984;SDS011;65033;44.660;37.758;2022-11-20T05:18:27;12.48;;;11.25;;
75984;SDS011;65033;44.660;37.758;2022-11-20T05:19:31;13.27;;;11.93;;
75984;SDS011;65033;44.660;37.758;2022-11-20T05:20:34;12.07;;;10.43;;
75984;SDS011;65033;44.660;37.758;2022-11-20T05:21:38;13.25;;;11.95;;
75984;SDS011;65033;44.660;37.758;2022-11-20T05:22:42;14.50;;;13.10;;
75984;SDS011;65033;44.660;37.758;2022-11-20T05:23:46;15.45;;;13.85;;
75984;SDS011;65033;44.660;37.758;2022-11-20T05:24:49;14.93;;;13.32;;
75984;SDS011;65033;44.660;37.758;2022-11-20T05:25:53;14.82;;;13.50;;
75984;SDS011;65033;44.660;37.758;2022-11-20T05:26:59;13.35;;;11.93;;
75984;SDS011;65033;44.660;37.758;2022-11-20T05:28:03;15.23;;;13.63;;
75984;SDS011;65033;44.660;37.758;2022-11-20T05:29:06;14.05;;;12.70;;
75984;SDS011;65033;44.660;37.758;2022-11-20T05:30:12;14.40;;;13.00;;
75984;SDS011;65033;44.660;37.758;2022-11-20T05:31:18;15.88;;;14.25;;
75984;SDS011;65033;44.660;37.758;2022-11-20T05:32:26;14.88;;;13.48;;
75984;SDS011;65033;44.660;37.758;2022-11-20T05:33:30;15.60;;;14.00;;
75984;SDS011;65033;44.660;37.758;2022-11-20T05:34:33;15.98;;;14.27;;
75984;SDS011;65033;44.660;37.758;2022-11-20T05:35:36;15.32;;;13.65;;
75984;SDS011;65033;44.660;37.758;2022-11-20T05:36:39;17.20;;;15.40;;
75984;SDS011;65033;44.660;37.758;2022-11-20T05:37:43;18.02;;;14.52;;
75984;SDS011;65033;44.660;37.758;2022-11-20T05:38:46;17.23;;;15.43;;
75984;SDS011;65033;44.660;37.758;2022-11-20T05:39:52;16.63;;;14.95;;
75984;SDS011;65033;44.660;37.758;2022-11-20T05:40:55;17.90;;;15.88;;
75984;SDS011;65033;44.660;37.758;2022-11-20T05:42:06;16.90;;;15.13;;
75984;SDS011;65033;44.660;37.758;2022-11-20T05:43:28;17.77;;;15.93;;
75984;SDS011;65033;44.660;37.758;2022-11-20T05:44:34;16.77;;;15.05;;
75984;SDS011;65033;44.660;37.758;2022-11-20T05:45:37;18.60;;;16.80;;
75984;SDS011;65033;44.660;37.758;2022-11-20T05:46:42;16.85;;;15.18;;
75984;SDS011;65033;44.660;37.758;2022-11-20T05:47:45;18.17;;;16.13;;
75984;SDS011;65033;44.660;37.758;2022-11-20T05:48:48;18.30;;;16.58;;
75984;SDS011;65033;44.660;37.758;2022-11-20T05:49:52;18.48;;;16.38;;
75984;SDS011;65033;44.660;37.758;2022-11-20T05:50:56;17.33;;;15.52;;
75984;SDS011;65033;44.660;37.758;2022-11-20T05:52:00;17.98;;;16.08;;
75984;SDS011;65033;44.660;37.758;2022-11-20T05:53:05;17.83;;;16.05;;
75984;SDS011;65033;44.660;37.758;2022-11-20T05:54:08;18.92;;;16.20;;
75984;SDS011;65033;44.660;37.758;2022-11-20T05:55:11;18.95;;;16.95;;
75984;SDS011;65033;44.660;37.758;2022-11-20T05:56:16;18.75;;;16.58;;
75984;SDS011;65033;44.660;37.758;2022-11-20T05:57:20;17.70;;;14.68;;
75984;SDS011;65033;44.660;37.758;2022-11-20T05:58:24;18.52;;;16.67;;
75984;SDS011;65033;44.660;37.758;2022-11-20T05:59:27;18.70;;;16.80;;
75984;SDS011;65033;44.660;37.758;2022-11-20T06:00:31;19.05;;;15.90;;
75984;SDS011;65033;44.660;37.758;2022-11-20T06:01:35;19.33;;;17.27;;
75984;SDS011;65033;44.660;37.758;2022-11-20T06:02:40;17.80;;;15.77;;
75984;SDS011;65033;44.660;37.758;2022-11-20T06:03:44;17.67;;;14.98;;
75984;SDS011;65033;44.660;37.758;2022-11-20T06:04:53;18.70;;;16.60;;
75984;SDS011;65033;44.660;37.758;2022-11-20T06:05:59;18.63;;;15.75;;
75984;SDS011;65033;44.660;37.758;2022-11-20T06:07:04;17.75;;;15.73;;
75984;SDS011;65033;44.660;37.758;2022-11-20T06:08:11;19.40;;;15.95;;
75984;SDS011;65033;44.660;37.758;2022-11-20T06:09:15;18.80;;;16.80;;
75984;SDS011;65033;44.660;37.758;2022-11-20T06:10:21;20.23;;;17.33;;
75984;SDS011;65033;44.660;37.758;2022-11-20T06:11:25;21.13;;;18.85;;
75984;SDS011;65033;44.660;37.758;2022-11-20T06:12:33;21.40;;;19.27;;
75984;SDS011;65033;44.660;37.758;2022-11-20T06:13:50;22.50;;;20.23;;
75984;SDS011;65033;44.660;37.758;2022-11-20T06:14:57;26.77;;;24.08;;
75984;SDS011;65033;44.660;37.758;2022-11-20T06:16:03;27.48;;;24.60;;
75984;SDS011;65033;44.660;37.758;2022-11-20T06:17:07;28.75;;;25.85;;
75984;SDS011;65033;44.660;37.758;2022-11-20T06:18:25;29.13;;;26.10;;
75984;SDS011;65033;44.660;37.758;2022-11-20T06:19:31;26.48;;;23.83;;
75984;SDS011;65033;44.660;37.758;2022-11-20T06:20:35;31.63;;;26.50;;
75984;SDS011;65033;44.660;37.758;2022-11-20T06:21:41;30.15;;;27.08;;
75984;SDS011;65033;44.660;37.758;2022-11-20T06:22:45;26.15;;;22.88;;
75984;SDS011;65033;44.660;37.758;2022-11-20T06:23:48;27.10;;;24.40;;
75984;SDS011;65033;44.660;37.758;2022-11-20T06:24:52;25.20;;;22.65;;
75984;SDS011;65033;44.660;37.758;2022-11-20T06:25:56;27.85;;;24.95;;
75984;SDS011;65033;44.660;37.758;2022-11-20T06:26:59;25.85;;;23.27;;